Airfield :
LOGIN :

Register | Disclaimer

   EN    FR    IT 

 










Legend :    VFR   Marginal VFR   IFR   Intensive IFR   Very Intensive IFR
Visi :
Ceiling :
>= 8 km
>= 3000ft
5 to 8 km
1000 to 3000 ft
1500m to 5 km
500 to 1000 ft
800 to 1500m
200 to 500 ft
< 800m
< 200 ft
Symbols :   Thunderstorms  Fog  Heavy snow  Heavy precipitations  Wind > 20 kt
SIGMETs :     Misc.  Thunderstorms  Icing  Turbulence  Mountain Waves  Volcanic Ashes






- Airport Elevation : 267 ft


EGDR - Culdrose Navy

CURRENT METAR :
  • 230050Z AUTO 26009KT 9999 // BKN010/// OVC029/// 15/14 Q1017

EXPIRED METARs :
  • 230020Z 26010KT 6000 -DZ FEW006 OVC010 15/14 Q1017 TEMPO 4000 -DZ SCT006 RMK GRN TEMPO YLO1
  • 222350Z 26010KT 9999 BKN025 15/14 Q1017 TEMPO SCT006 RMK BLU TEMPO YLO1
  • 222320Z 26011KT 9999 FEW010 15/14 Q1017 TEMPO 3000 -DZ SCT002 RMK BLU TEMPO YLO2
  • 222250Z 26012KT 9999 FEW008 15/14 Q1017 TEMPO 3000 -DZ SCT002 RMK BLU TEMPO YLO2
  • 222220Z 26012KT 9999 SCT008 OVC010 16/15 Q1017 TEMPO 3000 -DZ SCT002 RMK GRN TEMPO AMB
  • 222150Z 26013KT 9999 VCFG FEW002 SCT006 OVC009 16/16 Q1017 TEMPO 0500 FG SCT000 RMK YLO1 TEMPO RED
  • 222120Z 26014KT 6000 BCFG FEW000 SCT004 16/16 Q1016 TEMPO 0500 FG BKN000 RMK YLO2 TEMPO RED
  • 222050Z 25014KT 5000 BCFG FEW000 SCT002 OVC008 16/16 Q1016 TEMPO 0300 FG BKN000 RMK AMB TEMPO RED

TAF TAF EGDR
Valid from the 23 at 00:00 until the 23 at 09:00 UTC


222333Z 2300/2309 27012KT 9999 FEW010 SCT025
TEMPO 2300/2309 SCT010
PROB30
TEMPO 2300/2302 SCT006



MET'MAP, your aeronautical weather chart ! - Copyright ORBIFLY December 2007 - Disclaimer

ORBIFLY MET'MAP TEAM :

Programming & Development : Alexandra Zaïnal
Original concept : Baudouin d'Aumeries
Technical & hardware support : Manuel Goepfert
Assistance : Marc-Olivier Méhu




SOURCES & CREDITS :

   NOAA